Time,TemperatureF,DewpointF,PressureIn,WindDirection,WindDirectionDegrees,WindSpeedMPH,WindSpeedGustMPH,Humidity,HourlyPrecipIn,Conditions,Clouds,dailyrainin,SoftwareType,DateUTC
2013-04-10 00:00:00,43.9,42.0,30.09,North,0,0.0,0.0,93,0.00,,,0.00,LWC V2.00 B2112,2013-04-10 07:00:00,
2013-04-10 00:10:00,43.9,42.0,30.09,North,0,0.0,0.0,93,0.00,,,0.00,LWC V2.00 B2112,2013-04-10 07:10:00,
2013-04-10 00:20:00,43.9,42.0,30.09,North,0,0.0,0.0,93,0.00,,,0.00,LWC V2.00 B2112,2013-04-10 07:20:00,
2013-04-10 00:30:00,43.9,42.0,30.09,North,0,0.0,0.0,93,0.00,,,0.00,LWC V2.00 B2112,2013-04-10 07:30:00,
2013-04-10 00:40:00,43.5,41.6,30.09,North,0,0.0,0.0,93,0.00,,,0.00,LWC V2.00 B2112,2013-04-10 07:40:00,
2013-04-10 00:50:00,43.5,41.6,30.09,North,0,0.0,0.0,93,0.00,,,0.00,LWC V2.00 B2112,2013-04-10 07:50:00,
2013-04-10 01:00:00,43.5,41.6,30.09,North,0,0.0,0.0,93,0.00,,,0.00,LWC V2.00 B2112,2013-04-10 08:00:00,
2013-04-10 01:10:00,43.0,41.1,30.09,North,0,0.0,0.0,93,0.00,,,0.00,LWC V2.00 B2112,2013-04-10 08:10:00,
2013-04-10 01:20:00,43.0,41.1,30.09,North,0,0.0,0.0,93,0.00,,,0.00,LWC V2.00 B2112,2013-04-10 08:20:00,
2013-04-10 01:30:00,43.0,41.1,30.09,North,0,0.0,0.0,93,0.00,,,0.00,LWC V2.00 B2112,2013-04-10 08:30:00,
2013-04-10 01:40:00,43.0,41.4,30.09,North,0,0.0,0.0,94,0.00,,,0.00,LWC V2.00 B2112,2013-04-10 08:40:00,
2013-04-10 01:50:00,43.0,41.4,30.09,North,0,0.0,0.0,94,0.00,,,0.00,LWC V2.00 B2112,2013-04-10 08:50:00,
2013-04-10 02:00:00,43.0,41.4,30.09,North,0,0.0,0.0,94,0.00,,,0.00,LWC V2.00 B2112,2013-04-10 09:00:00,
2013-04-10 02:10:00,42.9,41.3,30.09,North,0,0.0,0.0,94,0.00,,,0.00,LWC V2.00 B2112,2013-04-10 09:10:00,
2013-04-10 02:20:00,42.9,41.3,30.09,North,0,0.0,0.0,94,0.00,,,0.00,LWC V2.00 B2112,2013-04-10 09:20:00,
2013-04-10 02:30:00,42.9,41.3,30.09,North,0,0.0,0.0,94,0.00,,,0.00,LWC V2.00 B2112,2013-04-10 09:30:00,
2013-04-10 02:40:00,42.5,40.9,30.09,North,0,0.0,0.0,94,0.00,,,0.00,LWC V2.00 B2112,2013-04-10 09:40:00,
2013-04-10 02:50:00,42.5,40.9,30.09,North,0,0.0,0.0,94,0.00,,,0.00,LWC V2.00 B2112,2013-04-10 09:50:00,
2013-04-10 03:00:00,42.5,40.9,30.09,North,0,0.0,0.0,94,0.00,,,0.00,LWC V2.00 B2112,2013-04-10 10:00:00,
2013-04-10 03:10:00,42.5,40.9,30.09,North,0,0.0,0.0,94,0.00,,,0.00,LWC V2.00 B2112,2013-04-10 10:10:00,
2013-04-10 03:20:00,42.5,40.9,30.09,North,0,0.0,0.0,94,0.00,,,0.00,LWC V2.00 B2112,2013-04-10 10:20:00,
2013-04-10 03:30:00,42.5,40.9,30.09,North,0,0.0,0.0,94,0.00,,,0.00,LWC V2.00 B2112,2013-04-10 10:30:00,
2013-04-10 03:40:00,42.2,40.6,30.09,North,0,0.0,0.0,94,0.00,,,0.00,LWC V2.00 B2112,2013-04-10 10:40:00,
2013-04-10 03:50:00,42.2,40.6,30.09,North,0,0.0,0.0,94,0.00,,,0.00,LWC V2.00 B2112,2013-04-10 10:50:00,
2013-04-10 04:00:00,42.2,40.6,30.09,North,0,0.0,0.0,94,0.00,,,0.00,LWC V2.00 B2112,2013-04-10 11:00:00,
2013-04-10 04:10:00,42.0,40.4,30.10,North,0,0.0,0.0,94,0.00,,,0.00,LWC V2.00 B2112,2013-04-10 11:10:00,
2013-04-10 04:20:00,42.0,40.4,30.10,North,0,0.0,0.0,94,0.00,,,0.00,LWC V2.00 B2112,2013-04-10 11:20:00,
2013-04-10 04:30:00,42.0,40.4,30.10,North,0,0.0,0.0,94,0.00,,,0.00,LWC V2.00 B2112,2013-04-10 11:30:00,
2013-04-10 04:40:00,41.7,40.1,30.10,North,0,0.0,0.0,94,0.00,,,0.00,LWC V2.00 B2112,2013-04-10 11:40:00,
2013-04-10 04:50:00,41.7,40.1,30.10,North,0,0.0,0.0,94,0.00,,,0.00,LWC V2.00 B2112,2013-04-10 11:50:00,
2013-04-10 05:00:00,41.7,40.1,30.10,North,0,0.0,0.0,94,0.00,,,0.00,LWC V2.00 B2112,2013-04-10 12:00:00,
2013-04-10 05:10:00,41.6,40.0,30.10,North,0,0.0,0.0,94,0.00,,,0.00,LWC V2.00 B2112,2013-04-10 12:10:00,
2013-04-10 05:20:00,41.6,40.0,30.10,North,0,0.0,0.0,94,0.00,,,0.00,LWC V2.00 B2112,2013-04-10 12:20:00,
2013-04-10 05:30:00,41.6,40.0,30.11,North,0,0.0,0.0,94,0.00,,,0.00,LWC V2.00 B2112,2013-04-10 12:30:00,
2013-04-10 05:40:00,41.6,40.0,30.11,North,0,0.0,0.0,94,0.00,,,0.00,LWC V2.00 B2112,2013-04-10 12:40:00,
2013-04-10 05:50:00,41.6,40.0,30.11,North,0,0.0,0.0,94,0.00,,,0.00,LWC V2.00 B2112,2013-04-10 12:50:00,
2013-04-10 06:00:00,41.5,40.2,30.11,North,0,0.0,0.0,95,0.00,,,0.00,LWC V2.00 B2112,2013-04-10 13:00:00,
2013-04-10 06:10:00,41.5,40.2,30.11,North,0,0.0,0.0,95,0.00,,,0.00,LWC V2.00 B2112,2013-04-10 13:10:00,
2013-04-10 06:20:00,41.5,40.2,30.11,North,0,0.0,0.0,95,0.00,,,0.00,LWC V2.00 B2112,2013-04-10 13:20:00,
2013-04-10 06:30:00,40.9,39.6,30.12,North,0,0.0,0.0,95,0.00,,,0.00,LWC V2.00 B2112,2013-04-10 13:30:00,
2013-04-10 06:40:00,40.9,39.6,30.12,SSE,168,0.0,0.0,95,0.00,,,0.00,LWC V2.00 B2112,2013-04-10 13:40:00,
2013-04-10 06:45:00,40.9,39.6,30.12,SSE,167,0.0,0.0,95,0.00,,,0.00,LWC V2.00 B2112,2013-04-10 13:45:00,
2013-04-10 06:50:00,41.0,39.7,30.13,SSE,167,0.0,0.0,95,0.00,,,0.00,LWC V2.00 B2112,2013-04-10 13:50:00,
2013-04-10 06:55:00,40.9,39.6,30.13,SSE,167,0.0,0.0,95,0.00,,,0.00,LWC V2.00 B2112,2013-04-10 13:55:00,
2013-04-10 07:00:00,41.0,39.7,30.13,SSE,167,0.0,0.0,95,0.00,,,0.00,LWC V2.00 B2112,2013-04-10 14:00:00,
2013-04-10 07:05:00,41.1,39.8,30.13,SSE,167,0.0,0.0,95,0.00,,,0.00,LWC V2.00 B2112,2013-04-10 14:05:00,
2013-04-10 07:10:00,41.3,40.0,30.13,SSE,167,0.0,0.0,95,0.00,,,0.00,LWC V2.00 B2112,2013-04-10 14:10:00,
2013-04-10 07:15:00,41.4,40.1,30.14,SSE,167,0.0,0.0,95,0.00,,,0.00,LWC V2.00 B2112,2013-04-10 14:15:00,
2013-04-10 07:20:00,41.5,40.2,30.14,SSE,167,0.0,0.0,95,0.00,,,0.00,LWC V2.00 B2112,2013-04-10 14:20:00,
2013-04-10 07:25:00,41.9,40.6,30.14,SSE,167,0.0,0.0,95,0.00,,,0.00,LWC V2.00 B2112,2013-04-10 14:25:00,
2013-04-10 07:30:00,42.4,41.1,30.14,SSE,167,0.0,0.0,95,0.00,,,0.00,LWC V2.00 B2112,2013-04-10 14:30:00,
2013-04-10 07:35:00,42.8,41.5,30.15,SSE,167,0.0,0.0,95,0.00,,,0.00,LWC V2.00 B2112,2013-04-10 14:35:00,
2013-04-10 07:40:00,43.2,41.9,30.15,SSE,168,0.0,0.0,95,0.00,,,0.00,LWC V2.00 B2112,2013-04-10 14:40:00,
2013-04-10 07:45:00,43.7,42.4,30.15,SSE,167,0.0,0.0,95,0.00,,,0.00,LWC V2.00 B2112,2013-04-10 14:45:00,
2013-04-10 07:50:00,44.1,42.8,30.15,SSE,167,0.0,0.0,95,0.00,,,0.00,LWC V2.00 B2112,2013-04-10 14:50:00,
2013-04-10 07:55:00,45.5,44.2,30.14,SSE,167,0.0,0.0,95,0.00,,,0.00,LWC V2.00 B2112,2013-04-10 14:55:00,
2013-04-10 08:00:00,46.8,45.4,30.15,SSE,167,0.0,0.0,95,0.00,,,0.00,LWC V2.00 B2112,2013-04-10 15:00:00,
2013-04-10 08:05:00,47.5,46.1,30.15,SSE,167,0.0,0.0,95,0.00,,,0.00,LWC V2.00 B2112,2013-04-10 15:05:00,
2013-04-10 08:10:00,48.3,46.9,30.15,SSE,166,0.0,0.0,95,0.00,,,0.00,LWC V2.00 B2112,2013-04-10 15:10:00,
2013-04-10 08:15:00,48.9,47.5,30.15,SSE,166,0.0,0.0,95,0.00,,,0.00,LWC V2.00 B2112,2013-04-10 15:15:00,
2013-04-10 08:20:00,49.8,48.4,30.15,SSE,165,0.0,0.0,95,0.00,,,0.00,LWC V2.00 B2112,2013-04-10 15:20:00,
2013-04-10 08:25:00,50.7,49.3,30.15,SSE,167,0.0,0.0,95,0.00,,,0.00,LWC V2.00 B2112,2013-04-10 15:25:00,
2013-04-10 08:30:00,51.5,49.8,30.15,SSE,165,0.0,0.0,94,0.00,,,0.00,LWC V2.00 B2112,2013-04-10 15:30:00,
2013-04-10 08:35:00,52.2,50.5,30.15,SSE,165,0.0,0.0,94,0.00,,,0.00,LWC V2.00 B2112,2013-04-10 15:35:00,
2013-04-10 08:40:00,52.8,51.1,30.16,ESE,112,0.0,0.0,94,0.00,,,0.00,LWC V2.00 B2112,2013-04-10 15:40:00,
2013-04-10 08:45:00,53.0,51.0,30.15,ESE,108,0.0,0.0,93,0.00,,,0.00,LWC V2.00 B2112,2013-04-10 15:45:00,
2013-04-10 08:50:00,53.6,51.3,30.15,ESE,109,0.0,0.0,92,0.00,,,0.00,LWC V2.00 B2112,2013-04-10 15:50:00,
2013-04-10 08:55:00,54.3,52.0,30.15,ESE,109,0.0,0.0,92,0.00,,,0.00,LWC V2.00 B2112,2013-04-10 15:55:00,
2013-04-10 09:00:00,54.9,52.3,30.15,ESE,108,0.0,0.0,91,0.00,,,0.00,LWC V2.00 B2112,2013-04-10 16:00:00,
2013-04-10 09:05:00,55.9,53.3,30.15,ESE,109,0.0,0.0,91,0.00,,,0.00,LWC V2.00 B2112,2013-04-10 16:05:00,
2013-04-10 09:10:00,56.8,53.9,30.15,SE,125,0.0,0.0,90,0.00,,,0.00,LWC V2.00 B2112,2013-04-10 16:10:00,
2013-04-10 09:15:00,57.4,53.9,30.15,East,94,0.0,0.0,88,0.00,,,0.00,LWC V2.00 B2112,2013-04-10 16:15:00,
2013-04-10 09:20:00,58.0,53.8,30.15,ESE,113,0.0,1.0,86,0.00,,,0.00,LWC V2.00 B2112,2013-04-10 16:20:00,
2013-04-10 09:25:00,58.8,54.6,30.15,ESE,114,0.0,0.0,86,0.00,,,0.00,LWC V2.00 B2112,2013-04-10 16:25:00,
2013-04-10 09:30:00,59.2,54.4,30.15,ESE,114,0.0,0.0,84,0.00,,,0.00,LWC V2.00 B2112,2013-04-10 16:30:00,
2013-04-10 09:35:00,59.8,55.0,30.15,ESE,114,0.0,0.0,84,0.00,,,0.00,LWC V2.00 B2112,2013-04-10 16:35:00,
2013-04-10 09:40:00,60.1,54.9,30.15,ESE,116,0.0,0.0,83,0.00,,,0.00,LWC V2.00 B2112,2013-04-10 16:40:00,
2013-04-10 09:45:00,60.8,55.6,30.15,SE,127,0.0,0.0,83,0.00,,,0.00,LWC V2.00 B2112,2013-04-10 16:45:00,
2013-04-10 09:50:00,61.3,55.8,30.15,SE,127,0.0,0.0,82,0.00,,,0.00,LWC V2.00 B2112,2013-04-10 16:50:00,
2013-04-10 09:55:00,61.8,55.9,30.15,SE,133,0.0,0.0,81,0.00,,,0.00,LWC V2.00 B2112,2013-04-10 16:55:00,
2013-04-10 10:00:00,61.9,54.2,30.16,SE,145,1.0,2.0,76,0.00,,,0.00,LWC V2.00 B2112,2013-04-10 17:00:00,
2013-04-10 10:05:00,62.1,54.4,30.16,SE,130,0.0,1.0,76,0.00,,,0.00,LWC V2.00 B2112,2013-04-10 17:05:00,
2013-04-10 10:10:00,62.7,54.7,30.16,ESE,108,2.0,3.0,75,0.00,,,0.00,LWC V2.00 B2112,2013-04-10 17:10:00,
2013-04-10 10:15:00,63.1,55.0,30.16,NE,39,0.0,1.0,75,0.00,,,0.00,LWC V2.00 B2112,2013-04-10 17:15:00,
2013-04-10 10:20:00,64.1,54.9,30.16,SE,128,1.0,3.0,72,0.00,,,0.00,LWC V2.00 B2112,2013-04-10 17:20:00,
2013-04-10 10:25:00,64.9,56.0,30.16,SSE,164,0.0,1.0,73,0.00,,,0.00,LWC V2.00 B2112,2013-04-10 17:25:00,
2013-04-10 10:30:00,65.9,57.0,30.16,South,174,0.0,1.0,73,0.00,,,0.00,LWC V2.00 B2112,2013-04-10 17:30:00,
2013-04-10 10:35:00,66.3,56.2,30.16,South,186,0.0,3.0,70,0.00,,,0.00,LWC V2.00 B2112,2013-04-10 17:35:00,
2013-04-10 10:40:00,65.9,56.2,30.16,East,94,2.0,3.0,71,0.00,,,0.00,LWC V2.00 B2112,2013-04-10 17:40:00,
2013-04-10 10:45:00,65.6,56.7,30.15,ESE,112,1.0,1.0,73,0.00,,,0.00,LWC V2.00 B2112,2013-04-10 17:45:00,
2013-04-10 10:50:00,65.8,57.6,30.15,ESE,115,0.0,0.0,75,0.00,,,0.00,LWC V2.00 B2112,2013-04-10 17:50:00,
2013-04-10 10:55:00,66.7,56.6,30.15,WSW,249,1.0,3.0,70,0.00,,,0.00,LWC V2.00 B2112,2013-04-10 17:55:00,
2013-04-10 11:00:00,67.4,56.5,30.15,West,264,1.0,1.0,68,0.00,,,0.00,LWC V2.00 B2112,2013-04-10 18:00:00,
2013-04-10 11:05:00,67.6,55.8,30.15,NNE,18,2.0,4.0,66,0.00,,,0.00,LWC V2.00 B2112,2013-04-10 18:05:00,
2013-04-10 11:10:00,67.3,56.0,30.15,SW,218,1.0,2.0,67,0.00,,,0.00,LWC V2.00 B2112,2013-04-10 18:10:00,
2013-04-10 11:15:00,67.8,55.6,30.15,WSW,256,1.0,2.0,65,0.00,,,0.00,LWC V2.00 B2112,2013-04-10 18:15:00,
2013-04-10 11:20:00,68.1,55.5,30.15,WSW,254,1.0,2.0,64,0.00,,,0.00,LWC V2.00 B2112,2013-04-10 18:20:00,
2013-04-10 11:25:00,68.5,55.4,30.15,SW,221,2.0,4.0,63,0.00,,,0.00,LWC V2.00 B2112,2013-04-10 18:25:00,
2013-04-10 11:30:00,68.2,54.7,30.15,South,183,0.0,4.0,62,0.00,,,0.00,LWC V2.00 B2112,2013-04-10 18:30:00,
2013-04-10 11:35:00,68.2,54.7,30.15,SSW,203,0.0,1.0,62,0.00,,,0.00,LWC V2.00 B2112,2013-04-10 18:35:00,
2013-04-10 11:40:00,68.6,54.6,30.15,NNE,26,1.0,3.0,61,0.00,,,0.00,LWC V2.00 B2112,2013-04-10 18:40:00,
2013-04-10 11:45:00,67.9,55.3,30.15,NNW,342,1.0,4.0,64,0.00,,,0.00,LWC V2.00 B2112,2013-04-10 18:45:00,
2013-04-10 11:50:00,67.8,54.3,30.14,WSW,249,1.0,3.0,62,0.00,,,0.00,LWC V2.00 B2112,2013-04-10 18:50:00,
2013-04-10 11:55:00,68.0,54.5,30.14,East,88,2.0,2.0,62,0.00,,,0.00,LWC V2.00 B2112,2013-04-10 18:55:00,
2013-04-10 12:00:00,67.7,55.1,30.14,NE,49,1.0,4.0,64,0.00,,,0.00,LWC V2.00 B2112,2013-04-10 19:00:00,
2013-04-10 12:05:00,67.8,55.2,30.14,East,98,2.0,2.0,64,0.00,,,0.00,LWC V2.00 B2112,2013-04-10 19:05:00,
2013-04-10 12:10:00,67.9,55.7,30.14,East,91,3.0,3.0,65,0.00,,,0.00,LWC V2.00 B2112,2013-04-10 19:10:00,
2013-04-10 12:15:00,68.0,56.2,30.14,SE,145,0.0,3.0,66,0.00,,,0.00,LWC V2.00 B2112,2013-04-10 19:15:00,
2013-04-10 12:20:00,69.2,55.2,30.14,West,274,1.0,7.0,61,0.00,,,0.00,LWC V2.00 B2112,2013-04-10 19:20:00,
2013-04-10 12:25:00,70.4,55.8,30.14,South,177,0.0,2.0,60,0.00,,,0.00,LWC V2.00 B2112,2013-04-10 19:25:00,
2013-04-10 12:30:00,71.3,54.3,30.14,NNE,26,0.0,4.0,55,0.00,,,0.00,LWC V2.00 B2112,2013-04-10 19:30:00,
2013-04-10 12:35:00,71.6,54.1,30.13,SSW,193,0.0,5.0,54,0.00,,,0.00,LWC V2.00 B2112,2013-04-10 19:35:00,
2013-04-10 12:40:00,71.6,54.1,30.14,WNW,286,2.0,3.0,54,0.00,,,0.00,LWC V2.00 B2112,2013-04-10 19:40:00,
2013-04-10 12:45:00,71.1,54.1,30.14,NW,312,1.0,2.0,55,0.00,,,0.00,LWC V2.00 B2112,2013-04-10 19:45:00,
2013-04-10 12:50:00,70.1,53.2,30.14,SE,134,1.0,5.0,55,0.00,,,0.00,LWC V2.00 B2112,2013-04-10 19:50:00,
2013-04-10 12:55:00,68.6,53.7,30.14,SE,128,1.0,5.0,59,0.00,,,0.00,LWC V2.00 B2112,2013-04-10 19:55:00,
2013-04-10 13:00:00,67.6,53.2,30.14,East,97,1.0,5.0,60,0.00,,,0.00,LWC V2.00 B2112,2013-04-10 20:00:00,
2013-04-10 13:05:00,66.6,53.6,30.15,WNW,293,2.0,9.0,63,0.00,,,0.00,LWC V2.00 B2112,2013-04-10 20:05:00,
2013-04-10 13:10:00,65.1,52.6,30.14,East,97,1.0,4.0,64,0.00,,,0.00,LWC V2.00 B2112,2013-04-10 20:10:00,
2013-04-10 13:15:00,64.5,52.9,30.14,SE,131,0.0,1.0,66,0.00,,,0.00,LWC V2.00 B2112,2013-04-10 20:15:00,
2013-04-10 13:20:00,63.9,52.7,30.14,ESE,103,3.0,5.0,67,0.00,,,0.00,LWC V2.00 B2112,2013-04-10 20:20:00,
2013-04-10 13:25:00,63.1,52.8,30.14,ENE,77,1.0,3.0,69,0.00,,,0.00,LWC V2.00 B2112,2013-04-10 20:25:00,
2013-04-10 13:30:00,62.7,52.4,30.14,NE,34,1.0,6.0,69,0.00,,,0.00,LWC V2.00 B2112,2013-04-10 20:30:00,
2013-04-10 13:35:00,62.3,52.8,30.13,West,276,1.0,7.0,71,0.00,,,0.00,LWC V2.00 B2112,2013-04-10 20:35:00,
2013-04-10 13:40:00,62.3,53.2,30.13,ENE,60,2.0,3.0,72,0.00,,,0.00,LWC V2.00 B2112,2013-04-10 20:40:00,
2013-04-10 13:45:00,63.2,53.2,30.13,East,94,1.0,4.0,70,0.00,,,0.00,LWC V2.00 B2112,2013-04-10 20:45:00,
2013-04-10 13:50:00,63.3,52.6,30.13,SE,139,3.0,4.0,68,0.00,,,0.00,LWC V2.00 B2112,2013-04-10 20:50:00,
2013-04-10 13:55:00,62.8,52.5,30.13,South,190,1.0,3.0,69,0.00,,,0.00,LWC V2.00 B2112,2013-04-10 20:55:00,
2013-04-10 14:00:00,63.1,52.8,30.12,East,94,1.0,2.0,69,0.00,,,0.00,LWC V2.00 B2112,2013-04-10 21:00:00,
2013-04-10 14:05:00,63.2,52.9,30.12,ENE,72,1.0,2.0,69,0.00,,,0.00,LWC V2.00 B2112,2013-04-10 21:05:00,
2013-04-10 14:10:00,63.7,53.3,30.12,ESE,120,1.0,2.0,69,0.00,,,0.00,LWC V2.00 B2112,2013-04-10 21:10:00,
2013-04-10 14:15:00,64.1,53.7,30.12,East,96,3.0,3.0,69,0.00,,,0.00,LWC V2.00 B2112,2013-04-10 21:15:00,
2013-04-10 14:20:00,63.5,52.3,30.12,NNW,343,0.0,6.0,67,0.00,,,0.00,LWC V2.00 B2112,2013-04-10 21:20:00,
2013-04-10 14:25:00,63.8,53.0,30.12,ESE,107,2.0,3.0,68,0.00,,,0.00,LWC V2.00 B2112,2013-04-10 21:25:00,
2013-04-10 14:30:00,64.1,52.9,30.12,NW,311,2.0,4.0,67,0.00,,,0.00,LWC V2.00 B2112,2013-04-10 21:30:00,
2013-04-10 14:35:00,64.6,53.4,30.12,East,99,1.0,5.0,67,0.00,,,0.00,LWC V2.00 B2112,2013-04-10 21:35:00,
2013-04-10 14:40:00,64.1,52.9,30.12,WNW,288,5.0,5.0,67,0.00,,,0.00,LWC V2.00 B2112,2013-04-10 21:40:00,
2013-04-10 14:45:00,64.0,53.6,30.11,North,6,4.0,8.0,69,0.00,,,0.00,LWC V2.00 B2112,2013-04-10 21:45:00,
2013-04-10 14:50:00,64.6,53.0,30.11,SW,218,2.0,4.0,66,0.00,,,0.00,LWC V2.00 B2112,2013-04-10 21:50:00,
2013-04-10 14:55:00,64.6,53.4,30.11,ENE,63,2.0,4.0,67,0.00,,,0.00,LWC V2.00 B2112,2013-04-10 21:55:00,
2013-04-10 15:00:00,64.7,53.1,30.11,East,88,4.0,6.0,66,0.00,,,0.00,LWC V2.00 B2112,2013-04-10 22:00:00,
2013-04-10 15:05:00,64.9,53.3,30.11,West,259,1.0,4.0,66,0.00,,,0.00,LWC V2.00 B2112,2013-04-10 22:05:00,
2013-04-10 15:10:00,65.2,53.1,30.11,NW,319,1.0,6.0,65,0.00,,,0.00,LWC V2.00 B2112,2013-04-10 22:10:00,
2013-04-10 15:15:00,64.7,52.7,30.11,NNW,340,2.0,4.0,65,0.00,,,0.00,LWC V2.00 B2112,2013-04-10 22:15:00,
2013-04-10 15:20:00,64.6,53.0,30.10,NW,324,3.0,7.0,66,0.00,,,0.00,LWC V2.00 B2112,2013-04-10 22:20:00,
2013-04-10 15:25:00,64.7,53.1,30.09,SSW,198,1.0,5.0,66,0.00,,,0.00,LWC V2.00 B2112,2013-04-10 22:25:00,
2013-04-10 15:30:00,64.1,52.5,30.09,SSW,196,3.0,6.0,66,0.00,,,0.00,LWC V2.00 B2112,2013-04-10 22:30:00,
2013-04-10 15:35:00,63.7,52.9,30.09,East,98,2.0,4.0,68,0.00,,,0.00,LWC V2.00 B2112,2013-04-10 22:35:00,
2013-04-10 15:40:00,63.5,53.1,30.09,ESE,112,3.0,7.0,69,0.00,,,0.00,LWC V2.00 B2112,2013-04-10 22:40:00,
2013-04-10 15:45:00,62.9,53.3,30.09,SE,133,1.0,1.0,71,0.00,,,0.00,LWC V2.00 B2112,2013-04-10 22:45:00,
2013-04-10 15:50:00,62.6,53.1,30.09,SSW,212,3.0,7.0,71,0.00,,,0.00,LWC V2.00 B2112,2013-04-10 22:50:00,
2013-04-10 15:55:00,62.4,53.2,30.09,SE,131,2.0,3.0,72,0.00,,,0.00,LWC V2.00 B2112,2013-04-10 22:55:00,
2013-04-10 16:00:00,62.3,53.2,30.09,SSE,153,2.0,2.0,72,0.00,,,0.00,LWC V2.00 B2112,2013-04-10 23:00:00,
2013-04-10 16:05:00,62.4,53.2,30.08,NW,313,4.0,6.0,72,0.00,,,0.00,LWC V2.00 B2112,2013-04-10 23:05:00,
2013-04-10 16:10:00,62.0,53.2,30.08,SSW,204,1.0,4.0,73,0.00,,,0.00,LWC V2.00 B2112,2013-04-10 23:10:00,
2013-04-10 16:15:00,61.5,52.4,30.08,SSE,160,3.0,9.0,72,0.00,,,0.00,LWC V2.00 B2112,2013-04-10 23:15:00,
2013-04-10 16:20:00,60.8,52.5,30.08,WNW,285,1.0,4.0,74,0.00,,,0.00,LWC V2.00 B2112,2013-04-10 23:20:00,
2013-04-10 16:25:00,60.2,52.6,30.08,SW,218,1.0,5.0,76,0.00,,,0.00,LWC V2.00 B2112,2013-04-10 23:25:00,
2013-04-10 16:30:00,60.2,53.0,30.08,WNW,290,1.0,4.0,77,0.00,,,0.00,LWC V2.00 B2112,2013-04-10 23:30:00,
2013-04-10 16:35:00,60.2,52.6,30.08,NW,326,3.0,5.0,76,0.00,,,0.00,LWC V2.00 B2112,2013-04-10 23:35:00,
2013-04-10 16:40:00,60.3,52.7,30.08,ESE,102,1.0,3.0,76,0.00,,,0.00,LWC V2.00 B2112,2013-04-10 23:40:00,
2013-04-10 16:45:00,60.2,53.0,30.08,NNW,341,2.0,3.0,77,0.00,,,0.00,LWC V2.00 B2112,2013-04-10 23:45:00,
2013-04-10 16:50:00,60.0,52.8,30.08,SW,229,5.0,7.0,77,0.00,,,0.00,LWC V2.00 B2112,2013-04-10 23:50:00,
2013-04-10 16:55:00,59.6,52.4,30.07,SSE,160,2.0,5.0,77,0.00,,,0.00,LWC V2.00 B2112,2013-04-10 23:55:00,
2013-04-10 17:00:00,59.4,52.5,30.07,SE,124,2.0,4.0,78,0.00,,,0.00,LWC V2.00 B2112,2013-04-11 00:00:00,
2013-04-10 17:05:00,59.5,52.6,30.07,WNW,297,2.0,4.0,78,0.00,,,0.00,LWC V2.00 B2112,2013-04-11 00:05:00,
2013-04-10 17:10:00,59.7,52.8,30.07,WNW,297,4.0,4.0,78,0.00,,,0.00,LWC V2.00 B2112,2013-04-11 00:10:00,
2013-04-10 17:15:00,59.7,52.8,30.07,NE,43,3.0,3.0,78,0.00,,,0.00,LWC V2.00 B2112,2013-04-11 00:15:00,
2013-04-10 17:20:00,59.6,52.7,30.07,West,281,2.0,5.0,78,0.00,,,0.00,LWC V2.00 B2112,2013-04-11 00:20:00,
2013-04-10 17:25:00,59.7,52.8,30.07,SE,130,2.0,4.0,78,0.00,,,0.00,LWC V2.00 B2112,2013-04-11 00:25:00,
2013-04-10 17:30:00,59.9,53.0,30.06,SW,225,2.0,6.0,78,0.00,,,0.00,LWC V2.00 B2112,2013-04-11 00:30:00,
2013-04-10 17:35:00,59.9,52.7,30.06,East,99,2.0,6.0,77,0.00,,,0.00,LWC V2.00 B2112,2013-04-11 00:35:00,
2013-04-10 17:40:00,60.0,52.8,30.06,NE,34,4.0,4.0,77,0.00,,,0.00,LWC V2.00 B2112,2013-04-11 00:40:00,
2013-04-10 17:45:00,59.7,52.8,30.06,ENE,63,1.0,10.0,78,0.00,,,0.00,LWC V2.00 B2112,2013-04-11 00:45:00,
2013-04-10 17:50:00,59.5,52.6,30.06,ESE,108,2.0,6.0,78,0.00,,,0.00,LWC V2.00 B2112,2013-04-11 00:50:00,
2013-04-10 17:55:00,59.1,52.2,30.06,West,269,1.0,4.0,78,0.00,,,0.00,LWC V2.00 B2112,2013-04-11 00:55:00,
2013-04-10 18:00:00,58.8,52.3,30.06,ESE,119,4.0,6.0,79,0.00,,,0.00,LWC V2.00 B2112,2013-04-11 01:00:00,
2013-04-10 18:05:00,58.3,51.8,30.06,East,85,2.0,5.0,79,0.00,,,0.00,LWC V2.00 B2112,2013-04-11 01:05:00,
2013-04-10 18:10:00,57.9,51.8,30.06,NW,314,4.0,6.0,80,0.00,,,0.00,LWC V2.00 B2112,2013-04-11 01:10:00,
2013-04-10 18:15:00,57.6,51.5,30.06,North,358,4.0,5.0,80,0.00,,,0.00,LWC V2.00 B2112,2013-04-11 01:15:00,
2013-04-10 18:20:00,57.2,51.4,30.06,ESE,114,1.0,3.0,81,0.00,,,0.00,LWC V2.00 B2112,2013-04-11 01:20:00,
2013-04-10 18:25:00,56.9,51.5,30.05,WNW,293,2.0,6.0,82,0.00,,,0.00,LWC V2.00 B2112,2013-04-11 01:25:00,
2013-04-10 18:30:00,56.7,51.3,30.06,West,259,2.0,4.0,82,0.00,,,0.00,LWC V2.00 B2112,2013-04-11 01:30:00,
2013-04-10 18:35:00,56.5,51.1,30.06,NNW,346,2.0,9.0,82,0.00,,,0.00,LWC V2.00 B2112,2013-04-11 01:35:00,
2013-04-10 18:40:00,55.9,50.8,30.06,WSW,257,2.0,11.0,83,0.00,,,0.00,LWC V2.00 B2112,2013-04-11 01:40:00,
2013-04-10 18:45:00,55.4,50.6,30.06,West,278,4.0,7.0,84,0.00,,,0.00,LWC V2.00 B2112,2013-04-11 01:45:00,
2013-04-10 18:50:00,54.8,50.4,30.06,WNW,295,5.0,5.0,85,0.00,,,0.00,LWC V2.00 B2112,2013-04-11 01:50:00,
2013-04-10 18:55:00,54.4,50.3,30.06,SW,217,0.0,3.0,86,0.00,,,0.00,LWC V2.00 B2112,2013-04-11 01:55:00,
2013-04-10 19:00:00,54.0,49.9,30.07,NNE,13,0.0,3.0,86,0.00,,,0.00,LWC V2.00 B2112,2013-04-11 02:00:00,
2013-04-10 19:05:00,53.7,49.9,30.07,SW,218,2.0,4.0,87,0.00,,,0.00,LWC V2.00 B2112,2013-04-11 02:05:00,
2013-04-10 19:10:00,53.3,49.8,30.07,SE,141,3.0,5.0,88,0.00,,,0.00,LWC V2.00 B2112,2013-04-11 02:10:00,
2013-04-10 19:15:00,53.1,49.6,30.07,ENE,70,1.0,4.0,88,0.00,,,0.00,LWC V2.00 B2112,2013-04-11 02:15:00,
2013-04-10 19:20:00,52.9,49.7,30.07,ESE,105,3.0,6.0,89,0.00,,,0.00,LWC V2.00 B2112,2013-04-11 02:20:00,
2013-04-10 19:25:00,52.7,49.5,30.07,ESE,110,5.0,7.0,89,0.00,,,0.00,LWC V2.00 B2112,2013-04-11 02:25:00,
2013-04-10 19:30:00,52.5,49.4,30.06,ESE,105,1.0,10.0,89,0.00,,,0.00,LWC V2.00 B2112,2013-04-11 02:30:00,
2013-04-10 19:35:00,52.4,49.6,30.06,NNW,340,1.0,2.0,90,0.00,,,0.00,LWC V2.00 B2112,2013-04-11 02:35:00,
2013-04-10 19:40:00,52.2,49.4,30.06,SE,128,3.0,3.0,90,0.00,,,0.00,LWC V2.00 B2112,2013-04-11 02:40:00,
2013-04-10 19:45:00,52.0,49.2,30.06,SSE,149,4.0,4.0,90,0.00,,,0.00,LWC V2.00 B2112,2013-04-11 02:45:00,
2013-04-10 19:50:00,51.9,49.1,30.07,ESE,111,5.0,6.0,90,0.00,,,0.00,LWC V2.00 B2112,2013-04-11 02:50:00,
2013-04-10 19:55:00,51.8,49.3,30.07,East,98,4.0,4.0,91,0.00,,,0.00,LWC V2.00 B2112,2013-04-11 02:55:00,
2013-04-10 20:00:00,51.6,49.1,30.07,ENE,70,4.0,9.0,91,0.00,,,0.00,LWC V2.00 B2112,2013-04-11 03:00:00,
2013-04-10 20:05:00,51.5,49.0,30.07,NE,50,2.0,5.0,91,0.00,,,0.00,LWC V2.00 B2112,2013-04-11 03:05:00,
2013-04-10 20:10:00,51.4,48.9,30.07,ESE,119,2.0,5.0,91,0.00,,,0.00,LWC V2.00 B2112,2013-04-11 03:10:00,
2013-04-10 20:15:00,51.3,48.8,30.07,ESE,115,1.0,3.0,91,0.00,,,0.00,LWC V2.00 B2112,2013-04-11 03:15:00,
2013-04-10 20:20:00,51.2,48.7,30.08,NE,40,2.0,6.0,91,0.00,,,0.00,LWC V2.00 B2112,2013-04-11 03:20:00,
2013-04-10 20:25:00,51.2,48.7,30.08,ENE,77,1.0,2.0,91,0.00,,,0.00,LWC V2.00 B2112,2013-04-11 03:25:00,
2013-04-10 20:30:00,51.1,48.9,30.08,North,0,3.0,6.0,92,0.00,,,0.00,LWC V2.00 B2112,2013-04-11 03:30:00,
2013-04-10 20:35:00,51.0,48.8,30.08,NNW,329,4.0,4.0,92,0.00,,,0.00,LWC V2.00 B2112,2013-04-11 03:35:00,
2013-04-10 20:40:00,51.0,48.8,30.08,NNW,338,6.0,7.0,92,0.00,,,0.00,LWC V2.00 B2112,2013-04-11 03:40:00,
2013-04-10 20:45:00,50.9,48.7,30.08,NW,314,1.0,3.0,92,0.00,,,0.00,LWC V2.00 B2112,2013-04-11 03:45:00,
2013-04-10 20:50:00,50.9,48.7,30.09,NW,326,5.0,5.0,92,0.00,,,0.00,LWC V2.00 B2112,2013-04-11 03:50:00,
2013-04-10 20:55:00,51.0,48.8,30.09,NW,316,3.0,4.0,92,0.00,,,0.00,LWC V2.00 B2112,2013-04-11 03:55:00,
2013-04-10 21:00:00,51.0,48.8,30.08,ENE,74,1.0,2.0,92,0.00,,,0.00,LWC V2.00 B2112,2013-04-11 04:00:00,
2013-04-10 21:01:00,51.0,48.8,30.08,South,177,1.0,2.0,92,0.00,,,0.00,LWC V2.00 B2112,2013-04-11 04:01:00,
2013-04-10 21:06:00,51.0,48.8,30.08,ENE,58,1.0,5.0,92,0.00,,,0.00,LWC V2.00 B2112,2013-04-11 04:06:00,
2013-04-10 21:11:00,51.0,48.8,30.08,ESE,109,1.0,3.0,92,0.00,,,0.00,LWC V2.00 B2112,2013-04-11 04:11:00,
2013-04-10 21:16:00,51.1,48.9,30.09,ENE,78,1.0,3.0,92,0.00,,,0.00,LWC V2.00 B2112,2013-04-11 04:16:00,
2013-04-10 21:21:00,51.1,48.9,30.09,East,88,2.0,2.0,92,0.00,,,0.00,LWC V2.00 B2112,2013-04-11 04:21:00,
2013-04-10 21:26:00,51.2,49.0,30.08,ESE,108,1.0,3.0,92,0.00,,,0.00,LWC V2.00 B2112,2013-04-11 04:26:00,
2013-04-10 21:31:00,51.2,49.0,30.09,WNW,284,2.0,7.0,92,0.00,,,0.00,LWC V2.00 B2112,2013-04-11 04:31:00,
2013-04-10 21:36:00,51.2,49.0,30.09,SE,127,1.0,3.0,92,0.00,,,0.00,LWC V2.00 B2112,2013-04-11 04:36:00,
2013-04-10 21:41:00,51.2,49.0,30.09,NW,320,4.0,5.0,92,0.00,,,0.00,LWC V2.00 B2112,2013-04-11 04:41:00,
2013-04-10 21:46:00,51.2,49.0,30.09,SE,135,1.0,7.0,92,0.00,,,0.00,LWC V2.00 B2112,2013-04-11 04:46:00,
2013-04-10 21:51:00,51.2,49.0,30.09,SSE,167,0.0,2.0,92,0.00,,,0.00,LWC V2.00 B2112,2013-04-11 04:51:00,
2013-04-10 21:56:00,51.2,49.0,30.08,NNW,334,0.0,1.0,92,0.00,,,0.00,LWC V2.00 B2112,2013-04-11 04:56:00,
2013-04-10 22:01:00,51.2,49.0,30.08,ENE,57,0.0,2.0,92,0.00,,,0.00,LWC V2.00 B2112,2013-04-11 05:01:00,
2013-04-10 22:06:00,51.1,48.9,30.09,SE,128,1.0,2.0,92,0.00,,,0.00,LWC V2.00 B2112,2013-04-11 05:06:00,
2013-04-10 22:11:00,51.1,48.9,30.09,ESE,122,2.0,6.0,92,0.00,,,0.00,LWC V2.00 B2112,2013-04-11 05:11:00,
2013-04-10 22:16:00,51.1,48.9,30.09,NNW,332,1.0,5.0,92,0.00,,,0.00,LWC V2.00 B2112,2013-04-11 05:16:00,
2013-04-10 22:20:00,51.1,48.8,30.09,East,101,2.0,6.0,92,0.00,,,0.00,LWC V2.00 B2112,2013-04-11 05:20:00,
2013-04-10 22:21:00,51.0,48.8,30.09,WSW,245,0.0,2.0,92,0.00,,,0.00,LWC V2.00 B2112,2013-04-11 05:21:00,
2013-04-10 22:30:00,51.0,48.8,30.09,ESE,112,1.0,6.0,92,0.00,,,0.00,LWC V2.00 B2112,2013-04-11 05:30:00,
2013-04-10 22:40:00,51.0,48.8,30.09,ESE,112,1.0,6.0,92,0.00,,,0.00,LWC V2.00 B2112,2013-04-11 05:40:00,
2013-04-10 22:50:00,51.0,48.8,30.09,ESE,112,1.0,6.0,92,0.00,,,0.00,LWC V2.00 B2112,2013-04-11 05:50:00,
2013-04-10 23:00:00,51.5,49.2,30.08,East,90,1.0,7.0,92,0.00,,,0.00,LWC V2.00 B2112,2013-04-11 06:00:00,
2013-04-10 23:10:00,51.5,49.2,30.08,East,90,1.0,7.0,92,0.00,,,0.00,LWC V2.00 B2112,2013-04-11 06:10:00,
2013-04-10 23:20:00,51.5,49.2,30.08,East,90,1.0,7.0,92,0.00,,,0.00,LWC V2.00 B2112,2013-04-11 06:20:00,
2013-04-10 23:30:00,51.8,49.3,30.08,ESE,112,2.0,8.0,91,0.00,,,0.00,LWC V2.00 B2112,2013-04-11 06:30:00,
2013-04-10 23:40:00,51.8,49.3,30.08,ESE,112,2.0,8.0,91,0.00,,,0.00,LWC V2.00 B2112,2013-04-11 06:40:00,
2013-04-10 23:50:00,51.8,49.3,30.08,ESE,112,2.0,8.0,91,0.00,,,0.00,LWC V2.00 B2112,2013-04-11 06:50:00,